Time;durP1;ratioP1;P1;durP2;ratioP2;P2;SDS_P1;SDS_P2;PMS_P1;PMS_P2;Temp;Humidity;BMP_temperature;BMP_pressure;BME280_temperature;BME280_humidity;BME280_pressure;Samples;Min_cycle;Max_cycle;Signal;HPM_P1;HPM_P2
2022/10/13 00:00:23;;;;;;;25.00;12.55;;;8.90;99.90;;;;;;5024017;28;20076;-75
2022/10/13 00:02:49;;;;;;;18.13;11.38;;;9.00;99.90;;;;;;5022519;28;20034;-75
2022/10/13 00:05:15;;;;;;;19.52;10.88;;;9.00;99.90;;;;;;5006216;28;20076;-75
2022/10/13 00:07:40;;;;;;;20.38;12.38;;;9.00;99.90;;;;;;5024020;28;20041;-75
2022/10/13 00:10:06;;;;;;;24.70;12.95;;;9.00;99.90;;;;;;5023034;28;20032;-75
2022/10/13 00:12:38;;;;;;;25.45;12.95;;;9.00;99.90;;;;;;5022542;28;20040;-75
2022/10/13 00:15:04;;;;;;;17.60;10.68;;;9.00;99.90;;;;;;5023881;28;20030;-75
2022/10/13 00:17:30;;;;;;;25.77;13.25;;;9.10;99.90;;;;;;5006742;28;20028;-75
2022/10/13 00:19:55;;;;;;;22.27;11.60;;;9.00;99.90;;;;;;5022628;28;20033;-75
2022/10/13 00:22:21;;;;;;;25.13;13.25;;;9.00;99.90;;;;;;5022384;28;20109;-75
2022/10/13 00:24:50;;;;;;;25.92;13.85;;;9.00;99.90;;;;;;5005694;28;20435;-75
2022/10/13 00:27:16;;;;;;;25.00;13.73;;;9.10;99.90;;;;;;5022937;28;20576;-75
2022/10/13 00:29:41;;;;;;;23.75;12.18;;;9.10;99.90;;;;;;5023065;28;20048;-75
2022/10/13 00:32:07;;;;;;;17.50;10.30;;;9.10;99.90;;;;;;5007611;28;20524;-75
2022/10/13 00:34:32;;;;;;;23.17;10.55;;;9.20;99.90;;;;;;5023702;28;20029;-75
2022/10/13 00:36:58;;;;;;;22.48;11.57;;;9.20;99.90;;;;;;5022884;28;20472;-75
2022/10/13 00:39:24;;;;;;;22.35;11.27;;;9.20;99.90;;;;;;5025447;28;20406;-75
2022/10/13 00:41:50;;;;;;;24.63;12.15;;;9.10;99.90;;;;;;5026519;28;20029;-75
2022/10/13 00:44:53;;;;;;;20.33;11.52;;;9.10;99.90;;;;;;4993717;28;20047;-75
2022/10/13 00:47:18;;;;;;;20.17;11.32;;;9.10;99.90;;;;;;5027341;28;20045;-75
2022/10/13 00:49:44;;;;;;;21.45;12.35;;;9.20;99.90;;;;;;5027318;28;20033;-75
2022/10/13 00:52:09;;;;;;;18.83;11.32;;;9.20;99.90;;;;;;5010827;28;20454;-75
2022/10/13 00:54:35;;;;;;;19.55;10.70;;;9.10;99.90;;;;;;5009411;28;20584;-74
2022/10/13 00:57:02;;;;;;;21.40;11.13;;;9.10;99.90;;;;;;5008398;28;20052;-75
2022/10/13 00:59:28;;;;;;;20.83;12.38;;;9.20;99.90;;;;;;5020657;28;20037;-75
2022/10/13 01:01:53;;;;;;;17.08;10.23;;;9.10;99.90;;;;;;5027583;28;20423;-75
2022/10/13 01:04:21;;;;;;;27.60;12.60;;;9.10;99.90;;;;;;5026202;28;20030;-75
2022/10/13 01:06:47;;;;;;;20.85;11.57;;;9.10;99.90;;;;;;5008146;28;20552;-75
2022/10/13 01:09:12;;;;;;;24.80;13.05;;;9.00;99.90;;;;;;4994115;28;20161;-75
2022/10/13 01:11:42;;;;;;;17.42;11.18;;;9.00;99.90;;;;;;5025942;28;20037;-75
2022/10/13 01:14:16;;;;;;;23.35;10.65;;;9.10;99.90;;;;;;5009573;28;20116;-75
2022/10/13 01:16:50;;;;;;;17.02;9.68;;;9.10;99.90;;;;;;5025521;28;20550;-75
2022/10/13 01:19:49;;;;;;;21.25;12.23;;;9.20;99.90;;;;;;5008619;28;20049;-75
2022/10/13 01:22:34;;;;;;;21.75;11.52;;;9.20;99.90;;;;;;5022889;28;20029;-75
2022/10/13 01:25:11;;;;;;;23.08;11.32;;;9.20;99.90;;;;;;5025778;28;20045;-75
2022/10/13 01:27:56;;;;;;;28.75;12.00;;;9.20;99.90;;;;;;5025509;28;20033;-76
2022/10/13 01:30:22;;;;;;;28.77;11.75;;;9.30;99.90;;;;;;5022404;28;20144;-75
2022/10/13 01:32:51;;;;;;;17.15;11.75;;;9.40;99.90;;;;;;5025956;28;20044;-75
2022/10/13 01:35:28;;;;;;;22.67;12.00;;;9.30;99.90;;;;;;5006892;28;20418;-75
2022/10/13 01:38:15;;;;;;;20.30;11.73;;;9.30;99.90;;;;;;5008207;28;20048;-75
2022/10/13 01:40:45;;;;;;;;;;;9.30;99.90;;;;;;5008267;28;20030;-75
2022/10/13 01:43:21;;;;;;;20.20;9.70;;;9.30;99.90;;;;;;5024563;28;20387;-75
2022/10/13 01:45:52;;;;;;;21.27;10.73;;;9.40;99.90;;;;;;5008165;28;20567;-74
2022/10/13 01:48:17;;;;;;;22.88;12.30;;;9.30;99.90;;;;;;5024304;28;20735;-75
2022/10/13 01:50:43;;;;;;;24.02;12.15;;;9.40;99.90;;;;;;5007844;28;20033;-75
2022/10/13 01:53:08;;;;;;;22.42;11.20;;;9.40;99.90;;;;;;5025482;28;20057;-76
2022/10/13 01:55:34;;;;;;;17.38;10.27;;;9.30;99.90;;;;;;5007874;28;20049;-75
2022/10/13 01:57:59;;;;;;;23.55;11.90;;;9.40;99.90;;;;;;5008073;28;20034;-75
2022/10/13 02:00:25;;;;;;;24.73;10.95;;;9.40;99.90;;;;;;5008259;28;20025;-75
2022/10/13 02:03:09;;;;;;;20.02;10.45;;;9.40;99.90;;;;;;5008459;28;20392;-75
2022/10/13 02:05:53;;;;;;;21.83;11.48;;;9.40;99.90;;;;;;5025902;28;20453;-75
2022/10/13 02:08:54;;;;;;;19.80;11.68;;;9.50;99.90;;;;;;5019622;28;20069;-75
2022/10/13 02:11:21;;;;;;;19.92;9.98;;;9.50;99.90;;;;;;4985119;28;20158;-75
2022/10/13 02:13:53;;;;;;;12.88;9.00;;;9.60;99.90;;;;;;5024604;28;20033;-75
2022/10/13 02:16:22;;;;;;;16.23;8.98;;;9.70;99.90;;;;;;5024888;28;20535;-75
2022/10/13 02:18:47;;;;;;;21.73;12.10;;;9.70;99.90;;;;;;5008498;28;20473;-75
2022/10/13 02:21:13;;;;;;;17.75;9.80;;;9.70;99.90;;;;;;5026269;28;20026;-74
2022/10/13 02:23:39;;;;;;;13.23;7.80;;;9.70;99.90;;;;;;5007832;28;20026;-74
2022/10/13 02:26:04;;;;;;;17.98;11.02;;;9.70;99.90;;;;;;4991115;28;20044;-74
2022/10/13 02:28:30;;;;;;;15.40;7.85;;;9.90;99.90;;;;;;5024076;28;20029;-74
2022/10/13 02:30:55;;;;;;;23.35;9.75;;;9.80;99.90;;;;;;4989205;28;20067;-74
2022/10/13 02:33:21;;;;;;;13.43;7.47;;;9.90;99.90;;;;;;5007995;28;20052;-74
2022/10/13 02:35:47;;;;;;;25.13;9.55;;;9.90;99.90;;;;;;5025573;28;20179;-74
2022/10/13 02:38:12;;;;;;;13.65;8.05;;;9.90;99.90;;;;;;4991015;28;20040;-74
2022/10/13 02:40:38;;;;;;;15.73;8.43;;;10.00;99.90;;;;;;4991886;28;20056;-74
2022/10/13 02:43:04;;;;;;;14.65;6.85;;;10.10;99.90;;;;;;5025087;28;20037;-74
2022/10/13 02:45:29;;;;;;;13.57;8.13;;;10.10;99.90;;;;;;5002394;28;20034;-74
2022/10/13 02:47:55;;;;;;;15.10;8.65;;;10.10;99.90;;;;;;4992721;28;20043;-74
2022/10/13 02:50:20;;;;;;;16.05;9.23;;;10.20;99.90;;;;;;5025420;28;20120;-74
2022/10/13 02:52:46;;;;;;;13.80;6.90;;;10.20;99.90;;;;;;5009347;28;20682;-74
2022/10/13 02:55:11;;;;;;;18.00;7.40;;;10.20;99.90;;;;;;5006974;28;20121;-74
2022/10/13 02:57:37;;;;;;;14.80;8.48;;;10.30;99.90;;;;;;5007758;28;20552;-74
2022/10/13 03:00:07;;;;;;;19.27;8.25;;;10.30;99.90;;;;;;4989992;28;20040;-75
2022/10/13 03:02:33;;;;;;;12.18;7.40;;;10.40;99.90;;;;;;5022577;28;20072;-74
2022/10/13 03:04:59;;;;;;;13.80;8.02;;;10.40;99.90;;;;;;5007206;28;20069;-74
2022/10/13 03:07:24;;;;;;;20.52;8.13;;;10.40;99.90;;;;;;5007047;28;20108;-75
2022/10/13 03:09:51;;;;;;;19.98;7.63;;;10.40;99.90;;;;;;5024640;28;20220;-75
2022/10/13 03:12:16;;;;;;;14.05;7.70;;;10.50;99.90;;;;;;5023621;28;20127;-75
2022/10/13 03:14:42;;;;;;;17.77;9.57;;;10.50;99.90;;;;;;5023102;28;20038;-75
2022/10/13 03:17:08;;;;;;;18.50;8.77;;;10.50;99.90;;;;;;5023538;28;20036;-75
2022/10/13 03:19:33;;;;;;;15.32;8.85;;;10.50;99.90;;;;;;5007128;28;20500;-75
2022/10/13 03:21:59;;;;;;;13.35;7.15;;;10.60;99.90;;;;;;5022664;28;20033;-76
2022/10/13 03:24:24;;;;;;;18.63;8.18;;;10.60;99.90;;;;;;5006894;28;20029;-75
2022/10/13 03:26:50;;;;;;;12.93;7.10;;;10.60;99.90;;;;;;5006939;28;20041;-75
2022/10/13 03:29:15;;;;;;;19.70;8.82;;;10.60;99.90;;;;;;5007232;28;20037;-75
2022/10/13 03:31:41;;;;;;;21.88;10.68;;;10.70;99.90;;;;;;5006403;28;20033;-76
2022/10/13 03:34:08;;;;;;;20.05;9.70;;;10.60;99.90;;;;;;5022462;28;20516;-75
2022/10/13 03:36:33;;;;;;;18.73;8.80;;;10.60;99.90;;;;;;5006676;28;20485;-75
2022/10/13 03:38:59;;;;;;;14.98;8.93;;;10.60;99.90;;;;;;5007049;28;20037;-75
2022/10/13 03:41:24;;;;;;;15.15;8.48;;;10.60;99.90;;;;;;5006508;28;20037;-75
2022/10/13 03:43:50;;;;;;;15.90;8.07;;;10.60;99.90;;;;;;5006719;28;20032;-75
2022/10/13 03:46:16;;;;;;;22.27;10.30;;;10.70;99.90;;;;;;5006722;28;20053;-75
2022/10/13 03:48:42;;;;;;;17.55;10.48;;;10.60;99.90;;;;;;5006982;28;20488;-76
2022/10/13 03:51:12;;;;;;;16.05;10.48;;;10.60;99.90;;;;;;5006314;28;20029;-75
2022/10/13 03:53:38;;;;;;;14.73;7.72;;;10.60;99.90;;;;;;5023550;28;20036;-76
2022/10/13 03:56:04;;;;;;;17.42;8.65;;;10.60;99.90;;;;;;5005290;28;20037;-75
2022/10/13 03:58:30;;;;;;;16.73;9.65;;;10.60;99.90;;;;;;5006168;28;20492;-76
2022/10/13 04:00:56;;;;;;;17.40;10.20;;;10.60;99.90;;;;;;5022926;28;20049;-75
2022/10/13 04:03:21;;;;;;;21.17;10.50;;;10.60;99.90;;;;;;5006421;28;20034;-75
2022/10/13 04:05:47;;;;;;;18.92;9.50;;;10.50;99.90;;;;;;5005222;28;20048;-75
2022/10/13 04:08:13;;;;;;;18.17;9.50;;;10.60;99.90;;;;;;5006699;28;20046;-75
2022/10/13 04:10:38;;;;;;;18.02;9.52;;;10.60;99.90;;;;;;5006211;28;20039;-75
2022/10/13 04:13:04;;;;;;;18.90;9.20;;;10.60;99.90;;;;;;5006610;28;20084;-75
2022/10/13 04:15:30;;;;;;;13.05;8.40;;;10.60;99.90;;;;;;5006474;28;20037;-75
2022/10/13 04:17:56;;;;;;;19.85;10.38;;;10.60;99.90;;;;;;4991164;28;20033;-75
2022/10/13 04:20:21;;;;;;;18.85;11.55;;;10.60;99.90;;;;;;5024201;28;20028;-76
2022/10/13 04:22:47;;;;;;;17.27;9.20;;;10.60;99.90;;;;;;5007185;28;20026;-75
2022/10/13 04:25:12;;;;;;;14.27;7.78;;;10.60;99.90;;;;;;5006860;28;20053;-76
2022/10/13 04:27:38;;;;;;;16.20;9.10;;;10.60;99.90;;;;;;5023634;28;20037;-75
2022/10/13 04:30:07;;;;;;;15.20;8.50;;;10.60;99.90;;;;;;5023807;28;20029;-76
2022/10/13 04:32:32;;;;;;;20.58;9.65;;;10.60;99.90;;;;;;5007355;28;20080;-76
2022/10/13 04:34:58;;;;;;;16.67;8.82;;;10.60;99.90;;;;;;5022974;28;20488;-76
2022/10/13 04:37:23;;;;;;;13.18;7.95;;;10.60;99.90;;;;;;5006986;28;20041;-76
2022/10/13 04:39:49;;;;;;;16.75;8.18;;;10.60;99.90;;;;;;5023875;28;20029;-76
2022/10/13 04:42:14;;;;;;;14.30;9.82;;;10.70;99.90;;;;;;5023513;28;20528;-75
2022/10/13 04:44:40;;;;;;;16.67;8.23;;;10.60;99.90;;;;;;5024548;28;20397;-75
2022/10/13 04:47:06;;;;;;;14.65;7.70;;;10.60;99.90;;;;;;4985172;28;20612;-77
2022/10/13 04:49:31;;;;;;;12.63;8.32;;;10.60;99.90;;;;;;5023479;28;20030;-77
2022/10/13 04:51:57;;;;;;;15.45;10.10;;;10.70;99.90;;;;;;5023746;28;20076;-77
2022/10/13 04:54:23;;;;;;;14.38;7.68;;;10.60;99.90;;;;;;5006738;28;20030;-78
2022/10/13 04:56:48;;;;;;;15.40;8.48;;;10.70;99.90;;;;;;4989305;28;20041;-78
2022/10/13 04:59:14;;;;;;;16.25;6.85;;;10.70;99.90;;;;;;5006721;28;20030;-75
2022/10/13 05:01:40;;;;;;;13.85;9.43;;;10.70;99.90;;;;;;4990292;28;20029;-77
2022/10/13 05:04:05;;;;;;;17.10;9.55;;;10.70;99.90;;;;;;5005850;28;20358;-77
2022/10/13 05:06:33;;;;;;;19.50;8.35;;;10.70;99.90;;;;;;4989805;28;20052;-78
2022/10/13 05:08:58;;;;;;;19.50;9.60;;;10.70;99.90;;;;;;5005737;28;20029;-77
2022/10/13 05:11:25;;;;;;;15.27;7.53;;;10.60;99.90;;;;;;5023137;28;20052;-77
2022/10/13 05:13:51;;;;;;;10.95;7.15;;;10.70;99.90;;;;;;4990404;28;20481;-77
2022/10/13 05:16:17;;;;;;;12.73;8.15;;;10.70;99.90;;;;;;5005909;28;20064;-78
2022/10/13 05:18:42;;;;;;;13.55;7.43;;;10.70;99.90;;;;;;5005671;28;20116;-78
2022/10/13 05:21:12;;;;;;;14.93;8.57;;;10.80;99.90;;;;;;5006209;28;20472;-77
2022/10/13 05:23:38;;;;;;;15.95;7.18;;;10.70;99.90;;;;;;4990831;28;20037;-78
2022/10/13 05:26:08;;;;;;;9.93;6.18;;;10.80;99.90;;;;;;5007779;28;20409;-78
2022/10/13 05:28:34;;;;;;;11.07;7.45;;;10.80;99.90;;;;;;5008587;28;20030;-77
2022/10/13 05:31:08;;;;;;;14.10;6.68;;;10.90;99.90;;;;;;5026070;28;20037;-77
2022/10/13 05:33:34;;;;;;;13.50;6.78;;;10.90;99.90;;;;;;5015137;28;20041;-77
2022/10/13 05:36:29;;;;;;;10.40;6.63;;;10.90;99.90;;;;;;4995932;28;20033;-78
2022/10/13 05:39:00;;;;;;;19.88;8.02;;;10.90;99.90;;;;;;5019958;28;20522;-78
2022/10/13 05:41:25;;;;;;;13.68;6.50;;;10.90;99.90;;;;;;5028519;28;20045;-77
2022/10/13 05:43:56;;;;;;;15.05;6.32;;;10.90;99.90;;;;;;4993294;28;20752;-77
2022/10/13 05:46:21;;;;;;;10.20;5.55;;;11.00;99.90;;;;;;5010241;28;20373;-77
2022/10/13 05:48:47;;;;;;;13.32;5.85;;;11.00;99.90;;;;;;5011552;28;20033;-77
2022/10/13 05:51:14;;;;;;;15.85;8.77;;;11.10;99.90;;;;;;5025799;28;20088;-77
2022/10/13 05:53:42;;;;;;;11.70;6.32;;;11.10;99.90;;;;;;5007072;28;20133;-77
2022/10/13 05:56:12;;;;;;;11.73;7.30;;;11.10;99.90;;;;;;5007844;28;20835;-77
2022/10/13 05:58:40;;;;;;;15.48;7.53;;;11.10;99.90;;;;;;5008512;28;20029;-77
2022/10/13 06:01:10;;;;;;;11.35;7.50;;;11.10;99.90;;;;;;5006655;28;20038;-78
2022/10/13 06:03:35;;;;;;;11.18;6.90;;;11.10;99.90;;;;;;5009101;28;20600;-77
2022/10/13 06:06:01;;;;;;;12.55;6.80;;;11.10;99.90;;;;;;5025230;28;20136;-78
2022/10/13 06:08:28;;;;;;;13.77;7.88;;;11.10;99.90;;;;;;4993609;28;20455;-76
2022/10/13 06:10:53;;;;;;;14.70;8.57;;;11.10;99.90;;;;;;5010035;28;20030;-76
2022/10/13 06:13:19;;;;;;;11.90;6.70;;;11.10;99.90;;;;;;5009569;28;20033;-76
2022/10/13 06:15:44;;;;;;;12.20;6.82;;;11.10;99.90;;;;;;5025450;28;20567;-76
2022/10/13 06:18:10;;;;;;;18.33;7.43;;;11.10;99.90;;;;;;5024727;28;20037;-76
2022/10/13 06:20:36;;;;;;;19.15;7.88;;;11.10;99.90;;;;;;5026161;28;20509;-76
2022/10/13 06:23:01;;;;;;;18.42;8.00;;;11.10;99.90;;;;;;5024421;28;20061;-77
2022/10/13 06:25:28;;;;;;;12.25;7.40;;;11.10;99.90;;;;;;5007651;28;20031;-76
2022/10/13 06:27:55;;;;;;;14.73;8.20;;;11.10;99.90;;;;;;5009081;28;20119;-76
2022/10/13 06:30:20;;;;;;;11.70;6.78;;;11.10;99.90;;;;;;5025126;28;20821;-76
2022/10/13 06:32:46;;;;;;;21.20;7.40;;;11.10;99.90;;;;;;5008570;28;20481;-76
2022/10/13 06:35:11;;;;;;;17.27;8.43;;;11.10;99.90;;;;;;5024613;28;20078;-76
2022/10/13 06:37:37;;;;;;;12.68;5.88;;;11.10;99.90;;;;;;5024860;28;20032;-76
2022/10/13 06:40:03;;;;;;;15.10;7.43;;;11.10;99.90;;;;;;5025730;28;20045;-76
2022/10/13 06:42:30;;;;;;;13.00;7.35;;;11.10;99.90;;;;;;5005880;28;20028;-76
2022/10/13 06:44:56;;;;;;;10.73;6.72;;;11.20;99.90;;;;;;5025931;28;20030;-76
2022/10/13 06:47:22;;;;;;;16.13;8.50;;;11.10;99.90;;;;;;5009268;28;20026;-76
2022/10/13 06:49:47;;;;;;;11.57;7.20;;;11.10;99.90;;;;;;5008600;28;20835;-76
2022/10/13 06:52:13;;;;;;;13.38;6.45;;;11.20;99.90;;;;;;5026852;28;20032;-76
2022/10/13 06:54:38;;;;;;;17.00;7.93;;;11.20;99.90;;;;;;5025066;28;20018;-77
2022/10/13 06:57:07;;;;;;;20.33;8.85;;;11.20;99.90;;;;;;5007744;28;20037;-76
2022/10/13 06:59:32;;;;;;;12.38;7.10;;;11.20;99.90;;;;;;4991892;28;20032;-76
2022/10/13 07:01:58;;;;;;;16.55;6.97;;;11.20;99.90;;;;;;4991780;28;20393;-76
2022/10/13 07:04:24;;;;;;;12.68;7.35;;;11.20;99.90;;;;;;5007794;28;20065;-77
2022/10/13 07:06:50;;;;;;;20.50;8.90;;;11.20;99.90;;;;;;5022531;28;20325;-76
2022/10/13 07:09:16;;;;;;;17.65;8.07;;;11.30;99.90;;;;;;5024527;28;20116;-76
2022/10/13 07:11:44;;;;;;;14.45;7.40;;;11.20;99.90;;;;;;5008089;28;20501;-76
2022/10/13 07:14:10;;;;;;;15.68;8.07;;;11.20;99.90;;;;;;5008207;28;20038;-76
2022/10/13 07:16:36;;;;;;;18.85;10.02;;;11.30;99.90;;;;;;5024282;28;20688;-76
2022/10/13 07:19:01;;;;;;;15.05;7.82;;;11.30;99.90;;;;;;5025982;28;20401;-77
2022/10/13 07:21:27;;;;;;;13.60;6.90;;;11.40;99.90;;;;;;5026293;28;20478;-77
2022/10/13 07:23:52;;;;;;;19.25;8.60;;;11.40;99.90;;;;;;5023850;28;20033;-77
2022/10/13 07:26:18;;;;;;;16.13;7.85;;;11.50;99.90;;;;;;5024036;28;20033;-76
2022/10/13 07:28:44;;;;;;;12.82;7.90;;;11.50;99.90;;;;;;5008046;28;20053;-77
2022/10/13 07:31:15;;;;;;;12.73;7.22;;;11.60;99.90;;;;;;5024008;28;20037;-76
2022/10/13 07:33:41;;;;;;;13.63;8.40;;;11.60;99.90;;;;;;5008808;28;20378;-75
2022/10/13 07:36:07;;;;;;;11.98;7.13;;;11.70;99.90;;;;;;5008120;28;20091;-76
2022/10/13 07:38:33;;;;;;;12.60;7.07;;;11.90;99.90;;;;;;5005555;28;20064;-76
2022/10/13 07:41:03;;;;;;;12.90;7.90;;;11.90;99.90;;;;;;5007835;28;20272;-75
2022/10/13 07:43:28;;;;;;;14.02;7.10;;;12.10;99.90;;;;;;5008327;28;20041;-75
2022/10/13 07:45:54;;;;;;;13.40;6.78;;;12.20;99.90;;;;;;5007810;28;20509;-76
2022/10/13 07:48:20;;;;;;;13.05;6.95;;;12.20;99.90;;;;;;5007245;28;20040;-76
2022/10/13 07:50:45;;;;;;;9.98;6.55;;;12.30;99.90;;;;;;5023040;28;20400;-75
2022/10/13 07:53:12;;;;;;;12.75;7.28;;;12.40;99.90;;;;;;5023669;28;20291;-78
2022/10/13 07:55:37;;;;;;;12.02;7.10;;;12.50;99.90;;;;;;5007268;28;20087;-77
2022/10/13 07:58:03;;;;;;;16.88;8.00;;;12.60;99.90;;;;;;5004301;28;20444;-78
2022/10/13 08:00:28;;;;;;;18.00;8.10;;;12.70;99.90;;;;;;5024412;28;20038;-78
2022/10/13 08:02:54;;;;;;;20.65;7.82;;;12.80;99.90;;;;;;5008094;28;20030;-77
2022/10/13 08:05:20;;;;;;;10.85;6.35;;;12.80;99.90;;;;;;5023718;28;20117;-77
2022/10/13 08:07:45;;;;;;;14.65;8.45;;;12.90;99.90;;;;;;5017497;28;20768;-77
2022/10/13 08:10:11;;;;;;;13.60;6.40;;;13.00;99.90;;;;;;5007814;28;20030;-77
2022/10/13 08:12:37;;;;;;;14.05;7.85;;;13.10;99.90;;;;;;5007922;28;20437;-78
2022/10/13 08:15:03;;;;;;;15.55;8.35;;;13.20;99.90;;;;;;5006891;28;20116;-77
2022/10/13 08:17:29;;;;;;;14.25;7.82;;;13.20;99.90;;;;;;5023352;28;20488;-77
2022/10/13 08:19:55;;;;;;;12.90;7.45;;;13.30;99.90;;;;;;5007345;28;20147;-77
2022/10/13 08:22:20;;;;;;;12.40;6.70;;;13.40;99.90;;;;;;5023897;28;20128;-78
2022/10/13 08:24:46;;;;;;;10.45;6.50;;;13.50;99.90;;;;;;5006776;28;20042;-77
2022/10/13 08:27:13;;;;;;;13.23;6.60;;;13.50;99.90;;;;;;5023407;28;20042;-77
2022/10/13 08:29:39;;;;;;;11.40;6.88;;;13.70;99.90;;;;;;5007395;28;20556;-78
2022/10/13 08:32:04;;;;;;;13.48;6.68;;;13.80;99.90;;;;;;5023168;28;20036;-78
2022/10/13 08:34:30;;;;;;;15.57;6.32;;;13.90;99.90;;;;;;5023368;28;20126;-78
2022/10/13 08:36:56;;;;;;;12.98;6.65;;;14.10;99.90;;;;;;5007309;28;20437;-78
2022/10/13 08:39:22;;;;;;;12.75;6.82;;;14.20;99.90;;;;;;4991099;28;20033;-77
2022/10/13 08:41:47;;;;;;;14.55;6.70;;;14.30;99.90;;;;;;5023558;28;20035;-77
2022/10/13 08:44:22;;;;;;;5.65;3.33;;;14.40;99.90;;;;;;5023733;28;20095;-78
2022/10/13 08:47:17;;;;;;;15.45;6.80;;;14.40;99.90;;;;;;5024890;28;20041;-78
2022/10/13 08:49:42;;;;;;;12.23;6.20;;;14.40;99.90;;;;;;5007501;28;20075;-77
2022/10/13 08:52:19;;;;;;;16.02;6.75;;;14.50;99.90;;;;;;5023220;28;20033;-78
2022/10/13 08:54:45;;;;;;;14.50;7.30;;;14.50;99.90;;;;;;4990788;28;20030;-78
2022/10/13 08:57:10;;;;;;;11.45;5.43;;;14.50;99.90;;;;;;5023580;28;20041;-78
2022/10/13 08:59:36;;;;;;;8.15;5.75;;;14.60;99.90;;;;;;4990521;28;20044;-78
2022/10/13 09:02:04;;;;;;;11.88;6.13;;;14.60;99.90;;;;;;5008445;28;20073;-78
2022/10/13 09:04:32;;;;;;;16.33;6.65;;;14.50;99.90;;;;;;5011622;28;20060;-78
2022/10/13 09:07:05;;;;;;;13.18;5.45;;;14.60;99.90;;;;;;5026925;28;20052;-78
2022/10/13 09:09:30;;;;;;;16.55;7.13;;;14.80;99.90;;;;;;5011414;28;20033;-78
2022/10/13 09:11:56;;;;;;;14.50;6.38;;;14.70;99.90;;;;;;4994225;28;20030;-78
2022/10/13 09:14:24;;;;;;;14.68;7.65;;;14.90;99.90;;;;;;5010474;28;20022;-78
2022/10/13 09:16:50;;;;;;;10.68;5.60;;;15.00;99.90;;;;;;5026795;28;20083;-77
2022/10/13 09:19:20;;;;;;;10.27;6.40;;;15.10;99.90;;;;;;5010577;28;20037;-76
2022/10/13 09:21:46;;;;;;;15.95;7.47;;;15.20;99.90;;;;;;5010274;28;20057;-77
2022/10/13 09:24:14;;;;;;;12.00;6.28;;;15.40;99.90;;;;;;5010619;28;20121;-77
2022/10/13 09:26:39;;;;;;;13.80;5.70;;;15.50;99.90;;;;;;5009328;28;20464;-76
2022/10/13 09:29:29;;;;;;;9.77;5.22;;;15.60;99.90;;;;;;5027025;28;20038;-78
2022/10/13 09:32:13;;;;;;;11.70;6.13;;;15.80;99.90;;;;;;5026754;28;20033;-78
2022/10/13 09:34:39;;;;;;;16.65;6.72;;;15.80;99.90;;;;;;5026926;28;20034;-79
2022/10/13 09:37:05;;;;;;;13.98;6.22;;;16.00;99.90;;;;;;5026498;28;20044;-78
2022/10/13 09:39:31;;;;;;;12.90;6.68;;;16.20;99.90;;;;;;5010879;28;20502;-78
2022/10/13 09:42:20;;;;;;;10.77;6.10;;;16.30;99.90;;;;;;5010256;28;20033;-78
2022/10/13 09:44:46;;;;;;;9.35;5.47;;;16.30;99.90;;;;;;5025830;28;20102;-79
2022/10/13 09:47:19;;;;;;;7.68;4.95;;;16.50;99.90;;;;;;4993893;28;20041;-78
2022/10/13 09:49:45;;;;;;;10.85;5.63;;;16.40;99.90;;;;;;5009359;28;20055;-78
2022/10/13 09:52:16;;;;;;;12.60;5.90;;;16.50;99.90;;;;;;5010418;28;20025;-76
2022/10/13 09:54:49;;;;;;;8.45;5.30;;;16.50;99.90;;;;;;5021518;28;20051;-76
2022/10/13 09:57:38;;;;;;;9.13;5.32;;;16.80;99.90;;;;;;4993256;28;20117;-76
2022/10/13 10:00:20;;;;;;;10.13;5.82;;;17.00;99.90;;;;;;4995208;28;20126;-76
2022/10/13 10:03:04;;;;;;;12.55;6.72;;;17.10;99.90;;;;;;5024385;28;20052;-77
2022/10/13 10:05:52;;;;;;;8.55;4.88;;;17.20;99.90;;;;;;5024358;28;20128;-76
2022/10/13 10:08:24;;;;;;;10.30;5.63;;;17.40;99.90;;;;;;5009750;28;20053;-76
2022/10/13 10:10:52;;;;;;;11.90;6.03;;;17.50;99.90;;;;;;5023890;28;20041;-76
2022/10/13 10:13:18;;;;;;;11.55;5.70;;;17.60;99.90;;;;;;5024176;28;20040;-76
2022/10/13 10:15:51;;;;;;;13.85;6.45;;;17.60;99.90;;;;;;4992514;28;20481;-78
2022/10/13 10:18:39;;;;;;;11.23;6.07;;;17.70;99.90;;;;;;4992854;28;20045;-78
2022/10/13 10:21:13;;;;;;;10.93;5.38;;;17.70;99.90;;;;;;5023963;28;20040;-78
2022/10/13 10:23:41;;;;;;;18.58;6.32;;;17.80;99.90;;;;;;5005819;28;20053;-78
2022/10/13 10:26:12;;;;;;;9.98;4.93;;;17.90;99.90;;;;;;5018424;28;20072;-78
2022/10/13 10:28:55;;;;;;;11.85;5.57;;;18.00;99.90;;;;;;5008720;28;20037;-78
2022/10/13 10:31:42;;;;;;;12.60;5.70;;;17.90;99.90;;;;;;5008073;28;20025;-78
2022/10/13 10:34:27;;;;;;;8.07;5.15;;;18.20;99.90;;;;;;5025182;28;20090;-78
2022/10/13 10:37:01;;;;;;;11.77;5.35;;;18.40;99.90;;;;;;5019540;28;20117;-78
2022/10/13 10:39:31;;;;;;;12.20;4.88;;;18.40;99.90;;;;;;5040069;28;20614;-78
2022/10/13 10:42:10;;;;;;;12.80;5.40;;;18.40;99.90;;;;;;5007450;28;20037;-77
2022/10/13 10:44:38;;;;;;;9.98;4.32;;;18.80;99.90;;;;;;5007624;28;20622;-79
2022/10/13 10:47:25;;;;;;;12.57;5.53;;;18.80;99.90;;;;;;5006642;28;20041;-77
2022/10/13 10:50:01;;;;;;;11.18;5.65;;;19.00;99.90;;;;;;5006934;28;20550;-76
2022/10/13 10:53:00;;;;;;;9.65;4.82;;;18.90;99.90;;;;;;4992089;28;20482;-77
2022/10/13 10:55:34;;;;;;;10.20;5.68;;;19.20;99.90;;;;;;5025288;28;20026;-77
2022/10/13 10:58:24;;;;;;;9.88;5.10;;;19.40;99.90;;;;;;5010347;28;20052;-77
2022/10/13 11:01:01;;;;;;;13.77;5.50;;;19.50;99.90;;;;;;5024604;28;20513;-77
2022/10/13 11:03:40;;;;;;;9.20;5.10;;;19.60;99.90;;;;;;5007457;28;20064;-77
2022/10/13 11:06:15;;;;;;;7.50;5.07;;;19.60;99.90;;;;;;5008476;28;20041;-77
2022/10/13 11:08:42;;;;;;;8.23;4.82;;;19.80;99.90;;;;;;5023878;28;20041;-77
2022/10/13 11:11:19;;;;;;;7.43;4.20;;;19.90;99.90;;;;;;5005862;28;20125;-77
2022/10/13 11:13:55;;;;;;;9.10;5.10;;;20.10;99.90;;;;;;4329196;28;10000260;-77
2022/10/13 11:16:28;;;;;;;12.48;5.20;;;20.20;99.90;;;;;;4989483;28;20152;-77
2022/10/13 11:18:54;;;;;;;9.80;5.22;;;20.30;99.60;;;;;;5021907;28;20080;-77
2022/10/13 11:21:20;;;;;;;6.78;4.55;;;20.20;99.90;;;;;;5004903;28;20124;-78
2022/10/13 11:23:47;;;;;;;10.73;4.57;;;20.30;99.90;;;;;;5004536;28;20201;-77
2022/10/13 11:26:25;;;;;;;10.80;4.43;;;20.20;99.80;;;;;;4989399;28;20041;-77
2022/10/13 11:28:51;;;;;;;12.43;5.55;;;20.10;99.40;;;;;;5011857;28;20886;-76
2022/10/13 11:31:30;;;;;;;7.30;3.72;;;20.10;99.50;;;;;;5005813;28;20029;-77
2022/10/13 11:33:58;;;;;;;11.65;4.85;;;20.00;99.90;;;;;;5004603;28;20029;-77
2022/10/13 11:36:38;;;;;;;8.48;4.68;;;19.90;99.30;;;;;;5005040;28;20572;-77
2022/10/13 11:39:16;;;;;;;11.88;5.13;;;19.90;99.50;;;;;;5005571;28;20733;-77
2022/10/13 11:41:48;;;;;;;10.02;4.85;;;20.00;99.50;;;;;;5019783;28;20030;-77
2022/10/13 11:44:47;;;;;;;14.77;5.15;;;20.00;99.30;;;;;;5005103;28;20064;-77
2022/10/13 11:47:18;;;;;;;9.68;4.78;;;19.70;98.90;;;;;;5010576;28;20038;-77
2022/10/13 11:49:59;;;;;;;7.03;4.35;;;19.60;99.20;;;;;;5014370;28;20026;-76
2022/10/13 11:52:45;;;;;;;8.75;4.13;;;19.60;99.20;;;;;;5005282;28;20045;-76
2022/10/13 11:55:16;;;;;;;8.32;4.63;;;19.50;98.90;;;;;;5003557;28;20517;-77
2022/10/13 11:57:42;;;;;;;8.35;4.50;;;19.30;99.40;;;;;;5020245;28;20060;-77
2022/10/13 12:00:18;;;;;;;11.40;5.65;;;19.40;99.40;;;;;;5005470;28;20053;-78
2022/10/13 12:02:49;;;;;;;5.65;3.78;;;19.40;99.40;;;;;;5004034;28;20033;-77
2022/10/13 12:05:27;;;;;;;12.98;4.07;;;19.20;99.30;;;;;;5002907;28;20040;-77
2022/10/13 12:07:59;;;;;;;9.48;4.55;;;19.10;99.30;;;;;;5004863;28;20034;-77
2022/10/13 12:10:35;;;;;;;12.50;4.95;;;19.20;99.20;;;;;;5011756;28;20036;-77
2022/10/13 12:13:00;;;;;;;9.57;4.68;;;19.20;99.30;;;;;;4995315;28;20036;-77
2022/10/13 12:15:34;;;;;;;9.90;4.90;;;19.30;99.90;;;;;;5025733;28;20037;-77
2022/10/13 12:18:00;;;;;;;14.20;5.22;;;19.20;99.50;;;;;;5025415;28;20038;-76
2022/10/13 12:20:28;;;;;;;9.27;4.78;;;19.00;99.90;;;;;;5012321;28;20051;-78
2022/10/13 12:22:54;;;;;;;11.52;5.47;;;19.10;99.90;;;;;;5008334;28;20389;-77
2022/10/13 12:25:24;;;;;;;12.48;5.10;;;18.80;99.90;;;;;;4990283;28;20029;-77
2022/10/13 12:27:54;;;;;;;13.10;5.47;;;18.60;99.90;;;;;;5006675;28;20121;-77
2022/10/13 12:30:21;;;;;;;11.00;5.78;;;18.60;99.90;;;;;;5007917;28;20079;-77
2022/10/13 12:32:54;;;;;;;12.77;6.03;;;18.60;99.90;;;;;;5007365;28;20121;-77
2022/10/13 12:35:23;;;;;;;12.75;5.30;;;18.40;99.90;;;;;;5008538;28;20044;-79
2022/10/13 12:37:48;;;;;;;9.98;6.13;;;18.30;99.90;;;;;;5011760;28;20026;-78
2022/10/13 12:40:17;;;;;;;13.88;6.18;;;18.20;99.90;;;;;;4989055;28;20382;-78
2022/10/13 12:42:42;;;;;;;11.18;6.07;;;18.00;99.90;;;;;;5011703;28;20033;-78
2022/10/13 12:45:31;;;;;;;14.15;6.05;;;18.00;99.90;;;;;;5011660;28;20033;-78
2022/10/13 12:47:57;;;;;;;10.27;6.47;;;17.80;99.90;;;;;;5012223;28;20430;-79